createdAt,value
2024-01-15T00:00:08.924Z,-7.93
2024-01-15T00:01:08.327Z,-7.95
2024-01-15T00:02:08.694Z,-7.99
2024-01-15T00:03:09.367Z,-7.99
2024-01-15T00:04:09.178Z,-7.97
2024-01-15T00:05:09.801Z,-7.99
2024-01-15T00:06:10.072Z,-8.03
2024-01-15T00:07:10.805Z,-8.02
2024-01-15T00:08:10.824Z,-8.03
2024-01-15T00:09:10.934Z,-8.03
2024-01-15T00:10:11.533Z,-7.99
2024-01-15T00:11:11.970Z,-7.99
2024-01-15T00:12:12.661Z,-8
2024-01-15T00:13:12.937Z,-7.97
2024-01-15T00:14:12.938Z,-7.98
2024-01-15T00:15:13.601Z,-7.96
2024-01-15T00:16:13.870Z,-7.92
2024-01-15T00:17:14.201Z,-7.92
2024-01-15T00:18:14.653Z,-7.91
2024-01-15T00:19:14.946Z,-7.94
2024-01-15T00:20:15.546Z,-7.95
2024-01-15T00:21:15.648Z,-7.93
2024-01-15T00:22:16.053Z,-7.98
2024-01-15T00:23:16.515Z,-7.97
2024-01-15T00:24:17.204Z,-7.95
2024-01-15T00:25:17.299Z,-7.96
2024-01-15T00:26:17.522Z,-7.97
2024-01-15T00:27:18.152Z,-8
2024-01-15T00:28:18.366Z,-7.98
2024-01-15T00:29:18.552Z,-7.96
2024-01-15T00:30:19.236Z,-7.95
2024-01-15T00:31:19.568Z,-7.96
2024-01-15T00:32:19.817Z,-7.89
2024-01-15T00:33:20.524Z,-7.88
2024-01-15T00:34:20.756Z,-7.87
2024-01-15T00:35:21.073Z,-7.88
2024-01-15T00:36:21.948Z,-7.88
2024-01-15T00:37:21.780Z,-7.85
2024-01-15T00:38:22.304Z,-7.88
2024-01-15T00:39:22.547Z,-7.9
2024-01-15T00:40:22.649Z,-7.9
2024-01-15T00:41:23.256Z,-7.9
2024-01-15T00:42:23.736Z,-7.89
2024-01-15T00:43:24.096Z,-7.85
2024-01-15T00:44:24.395Z,-7.84
2024-01-15T00:45:24.849Z,-7.84
2024-01-15T00:46:25.221Z,-7.81
2024-01-15T00:47:25.575Z,-7.77
2024-01-15T00:48:26.192Z,-7.76
2024-01-15T00:49:28.238Z,-7.78
2024-01-15T00:50:26.641Z,-7.79
2024-01-15T00:51:27.135Z,-7.73
2024-01-15T00:52:27.405Z,-7.71
2024-01-15T00:53:28.034Z,-7.71
2024-01-15T00:54:28.505Z,-7.73
2024-01-15T00:55:29.887Z,-7.75
2024-01-15T00:56:28.877Z,-7.79
2024-01-15T00:57:29.428Z,-7.75
2024-01-15T00:58:29.709Z,-7.78
2024-01-15T00:59:29.966Z,-7.79
2024-01-15T01:00:30.635Z,-7.74
2024-01-15T01:01:31.043Z,-7.71
2024-01-15T01:02:31.184Z,-7.68
2024-01-15T01:03:31.812Z,-7.7
2024-01-15T01:04:31.940Z,-7.72
2024-01-15T01:05:32.370Z,-7.73
2024-01-15T01:06:34.426Z,-7.72
2024-01-15T01:07:33.259Z,-7.71
2024-01-15T01:08:33.589Z,-7.71
2024-01-15T01:09:34.042Z,-7.7
2024-01-15T01:10:34.215Z,-7.7
2024-01-15T01:11:34.726Z,-7.72
2024-01-15T01:12:35.235Z,-7.75
2024-01-15T01:13:35.546Z,-7.78
2024-01-15T01:14:35.921Z,-7.72
2024-01-15T01:15:36.357Z,-7.69
2024-01-15T01:16:36.677Z,-7.67
2024-01-15T01:17:37.148Z,-7.61
2024-01-15T01:18:37.734Z,-7.6
2024-01-15T01:19:37.794Z,-7.62
2024-01-15T01:20:38.262Z,-7.66
2024-01-15T01:21:38.708Z,-7.62
2024-01-15T01:22:38.883Z,-7.56
2024-01-15T01:23:39.590Z,-7.63
2024-01-15T01:24:39.773Z,-7.63
2024-01-15T01:25:39.999Z,-7.57
2024-01-15T01:26:40.447Z,-7.53
2024-01-15T01:27:40.688Z,-7.51
2024-01-15T01:28:41.284Z,-7.55
2024-01-15T01:29:41.489Z,-7.52
2024-01-15T01:30:43.559Z,-7.54
2024-01-15T01:31:45.006Z,-7.54
2024-01-15T01:32:44.345Z,-7.55
2024-01-15T01:33:44.753Z,-7.53
2024-01-15T01:34:44.985Z,-7.51
2024-01-15T01:35:45.569Z,-7.51
2024-01-15T01:36:45.988Z,-7.53
2024-01-15T01:37:46.034Z,-7.48
2024-01-15T01:38:46.663Z,-7.47
2024-01-15T01:39:47.033Z,-7.53
2024-01-15T01:40:47.237Z,-7.55
2024-01-15T01:41:47.629Z,-7.55
2024-01-15T01:42:50.192Z,-7.5
2024-01-15T01:43:48.603Z,-7.47
2024-01-15T01:44:48.797Z,-7.47
2024-01-15T01:45:49.505Z,-7.5
2024-01-15T01:46:49.894Z,-7.51
2024-01-15T01:47:50.208Z,-7.52
2024-01-15T01:48:50.665Z,-7.52
2024-01-15T01:49:50.865Z,-7.52
2024-01-15T01:50:51.178Z,-7.54
2024-01-15T01:51:52.322Z,-7.49
2024-01-15T01:52:52.100Z,-7.5
2024-01-15T01:53:52.925Z,-7.5
2024-01-15T01:54:53.765Z,-7.49
2024-01-15T01:55:54.367Z,-7.49
2024-01-15T01:56:53.626Z,-7.49
2024-01-15T01:57:54.658Z,-7.47
2024-01-15T01:58:54.937Z,-7.45
2024-01-15T01:59:55.111Z,-7.45
2024-01-15T02:00:55.333Z,-7.46
2024-01-15T02:01:58.447Z,-7.43
2024-01-15T02:02:56.069Z,-7.46
2024-01-15T02:03:56.495Z,-7.45
2024-01-15T02:04:56.849Z,-7.47
2024-01-15T02:05:57.926Z,-7.45
2024-01-15T02:06:57.550Z,-7.48
2024-01-15T02:07:57.919Z,-7.44
2024-01-15T02:08:58.948Z,-7.42
2024-01-15T02:09:58.663Z,-7.41
2024-01-15T02:10:59.258Z,-7.47
2024-01-15T02:11:59.382Z,-7.44
2024-01-15T02:12:59.717Z,-7.42
2024-01-15T02:14:00.541Z,-7.43
2024-01-15T02:15:00.825Z,-7.38
2024-01-15T02:16:00.973Z,-7.35
2024-01-15T02:17:01.558Z,-7.36
2024-01-15T02:18:06.312Z,-7.4
2024-01-15T02:19:04.289Z,-7.41
2024-01-15T02:20:05.194Z,-7.39
2024-01-15T02:21:05.322Z,-7.39
2024-01-15T02:22:05.599Z,-7.39
2024-01-15T02:23:15.932Z,-7.4
2024-01-15T02:24:09.092Z,-7.41
2024-01-15T02:25:09.148Z,-7.36
2024-01-15T02:26:10.079Z,-7.4
2024-01-15T02:27:10.576Z,-7.4
2024-01-15T02:28:11.874Z,-7.37
2024-01-15T02:29:10.651Z,-7.34
2024-01-15T02:30:15.021Z,-7.36
2024-01-15T02:31:12.783Z,-7.35
2024-01-15T02:32:13.432Z,-7.34
2024-01-15T02:33:14.608Z,-7.34
2024-01-15T02:34:14.139Z,-7.32
2024-01-15T02:35:14.097Z,-7.34
2024-01-15T02:36:14.699Z,-7.28
2024-01-15T02:37:15.627Z,-7.29
2024-01-15T02:38:15.216Z,-7.31
2024-01-15T02:39:15.816Z,-7.31
2024-01-15T02:40:16.366Z,-7.29
2024-01-15T02:41:16.593Z,-7.31
2024-01-15T02:42:16.903Z,-7.3
2024-01-15T02:43:17.205Z,-7.29
2024-01-15T02:44:17.787Z,-7.28
2024-01-15T02:45:18.437Z,-7.26
2024-01-15T02:46:18.452Z,-7.26
2024-01-15T02:47:18.854Z,-7.22
2024-01-15T02:48:19.389Z,-7.17
2024-01-15T02:49:19.850Z,-7.2
2024-01-15T02:50:19.926Z,-7.19
2024-01-15T02:51:20.426Z,-7.21
2024-01-15T02:52:20.839Z,-7.2
2024-01-15T02:53:21.264Z,-7.2
2024-01-15T02:54:21.587Z,-7.22
2024-01-15T02:55:21.900Z,-7.2
2024-01-15T02:56:22.187Z,-7.18
2024-01-15T02:57:22.673Z,-7.19
2024-01-15T02:58:23.348Z,-7.22
2024-01-15T02:59:23.398Z,-7.17
2024-01-15T03:00:23.793Z,-7.17
2024-01-15T03:01:24.102Z,-7.16
2024-01-15T03:02:24.593Z,-7.19
2024-01-15T03:03:24.996Z,-7.19
2024-01-15T03:04:25.622Z,-7.18
2024-01-15T03:05:25.656Z,-7.18
2024-01-15T03:06:26.134Z,-7.19
2024-01-15T03:07:26.877Z,-7.19
2024-01-15T03:08:26.786Z,-7.16
2024-01-15T03:09:27.358Z,-7.12
2024-01-15T03:10:27.835Z,-7.11
2024-01-15T03:11:28.036Z,-7.11
2024-01-15T03:12:28.374Z,-7.11
2024-01-15T03:13:28.856Z,-7.07
2024-01-15T03:14:29.223Z,-7.06
2024-01-15T03:15:29.581Z,-7.06
2024-01-15T03:16:29.906Z,-7.05
2024-01-15T03:17:30.347Z,-7.05
2024-01-15T03:18:31.041Z,-7.01
2024-01-15T03:19:31.396Z,-7.02
2024-01-15T03:20:32.199Z,-7.01
2024-01-15T03:21:32.034Z,-7.06
2024-01-15T03:22:32.297Z,-7.04
2024-01-15T03:23:32.663Z,-7.03
2024-01-15T03:24:34.077Z,-7.01
2024-01-15T03:25:33.360Z,-7.02
2024-01-15T03:26:33.727Z,-7
2024-01-15T03:27:34.306Z,-6.98
2024-01-15T03:28:34.697Z,-6.96
2024-01-15T03:29:35.028Z,-6.98
2024-01-15T03:30:35.565Z,-6.94
2024-01-15T03:31:35.803Z,-6.91
2024-01-15T03:32:36.344Z,-6.88
2024-01-15T03:33:36.546Z,-6.85
2024-01-15T03:34:37.278Z,-6.85
2024-01-15T03:35:37.228Z,-6.87
2024-01-15T03:36:37.866Z,-6.85
2024-01-15T03:37:38.476Z,-6.85
2024-01-15T03:38:42.541Z,-6.86
2024-01-15T03:39:40.199Z,-6.86
2024-01-15T03:40:40.740Z,-6.88
2024-01-15T03:41:40.685Z,-6.87
2024-01-15T03:42:41.322Z,-6.84
2024-01-15T03:43:41.759Z,-6.81
2024-01-15T03:44:41.921Z,-6.81
2024-01-15T03:45:42.226Z,-6.81
2024-01-15T03:46:42.675Z,-6.81
2024-01-15T03:47:43.246Z,-6.82
2024-01-15T03:48:43.672Z,-6.84
2024-01-15T03:49:44.120Z,-6.85
2024-01-15T03:50:44.372Z,-6.85
2024-01-15T03:51:44.777Z,-6.83
2024-01-15T03:52:45.120Z,-6.78
2024-01-15T03:53:45.729Z,-6.74
2024-01-15T03:54:45.965Z,-6.7
2024-01-15T03:55:46.358Z,-6.68
2024-01-15T03:56:46.558Z,-6.65
2024-01-15T03:57:47.776Z,-6.62
2024-01-15T03:58:48.204Z,-6.59
2024-01-15T03:59:48.715Z,-6.61
2024-01-15T04:00:49.214Z,-6.66
2024-01-15T04:01:52.335Z,-6.65
2024-01-15T04:02:49.872Z,-6.63
2024-01-15T04:03:50.124Z,-6.59
2024-01-15T04:04:50.881Z,-6.59
2024-01-15T04:05:51.098Z,-6.6
2024-01-15T04:06:51.481Z,-6.58
2024-01-15T04:07:51.750Z,-6.56
2024-01-15T04:08:52.016Z,-6.53
2024-01-15T04:09:52.655Z,-6.53
2024-01-15T04:10:52.886Z,-6.54
2024-01-15T04:11:53.435Z,-6.55
2024-01-15T04:12:54.036Z,-6.61
2024-01-15T04:13:54.047Z,-6.61
2024-01-15T04:14:54.557Z,-6.64
2024-01-15T04:15:54.872Z,-6.68
2024-01-15T04:16:55.197Z,-6.71
2024-01-15T04:17:55.867Z,-6.73
2024-01-15T04:18:56.135Z,-6.68
2024-01-15T04:19:56.549Z,-6.68
2024-01-15T04:20:56.877Z,-6.67
2024-01-15T04:21:57.205Z,-6.7
2024-01-15T04:22:57.529Z,-6.64
2024-01-15T04:23:58.009Z,-6.6
2024-01-15T04:24:59.160Z,-6.61
2024-01-15T04:25:58.551Z,-6.59
2024-01-15T04:26:59.261Z,-6.57
2024-01-15T04:27:59.556Z,-6.51
2024-01-15T04:28:59.901Z,-6.52
2024-01-15T04:30:00.499Z,-6.53
2024-01-15T04:31:00.842Z,-6.48
2024-01-15T04:32:01.250Z,-6.43
2024-01-15T04:33:01.714Z,-6.39
2024-01-15T04:34:02.055Z,-6.38
2024-01-15T04:35:02.292Z,-6.39
2024-01-15T04:36:04.142Z,-6.4
2024-01-15T04:37:03.522Z,-6.4
2024-01-15T04:38:03.881Z,-6.4
2024-01-15T04:39:04.252Z,-6.4
2024-01-15T04:40:05.078Z,-6.36
2024-01-15T04:41:04.986Z,-6.4
2024-01-15T04:42:05.651Z,-6.41
2024-01-15T04:43:05.312Z,-6.39
2024-01-15T04:44:05.932Z,-6.38
2024-01-15T04:45:06.975Z,-6.39
2024-01-15T04:46:09.466Z,-6.4
2024-01-15T04:47:07.068Z,-6.37
2024-01-15T04:48:07.977Z,-6.37
2024-01-15T04:49:08.249Z,-6.33
2024-01-15T04:50:09.037Z,-6.28
2024-01-15T04:51:10.468Z,-6.24
2024-01-15T04:52:08.940Z,-6.21
2024-01-15T04:53:12.660Z,-6.21
2024-01-15T04:54:10.939Z,-6.2
2024-01-15T04:55:11.413Z,-6.18
2024-01-15T04:56:12.046Z,-6.19
2024-01-15T04:57:12.319Z,-6.17
2024-01-15T04:58:12.453Z,-6.14
2024-01-15T04:59:12.917Z,-6.12
2024-01-15T05:00:14.167Z,-6.09
2024-01-15T05:01:16.726Z,-6.08
2024-01-15T05:02:14.758Z,-6.05
2024-01-15T05:03:15.369Z,-5.99
2024-01-15T05:04:15.739Z,-5.98
2024-01-15T05:05:16.438Z,-6.06
2024-01-15T05:06:16.578Z,-6.11
2024-01-15T05:07:16.729Z,-6.14
2024-01-15T05:08:17.147Z,-6.17
2024-01-15T05:09:17.882Z,-6.16
2024-01-15T05:10:17.964Z,-6.18
2024-01-15T05:11:19.305Z,-6.16
2024-01-15T05:12:18.910Z,-6.12
2024-01-15T05:13:19.115Z,-6.11
2024-01-15T05:14:19.542Z,-6.12
2024-01-15T05:15:19.952Z,-6.08
2024-01-15T05:16:20.356Z,-6.06
2024-01-15T05:17:20.664Z,-6.09
2024-01-15T05:18:21.365Z,-6.11
2024-01-15T05:19:21.777Z,-6.11
2024-01-15T05:20:22.986Z,-6.14
2024-01-15T05:21:22.516Z,-6.08
2024-01-15T05:22:22.766Z,-6.11
2024-01-15T05:23:23.190Z,-6.09
2024-01-15T05:24:24.349Z,-6.07
2024-01-15T05:25:25.024Z,-6.04
2024-01-15T05:26:25.162Z,-6.02
2024-01-15T05:27:25.563Z,-6
2024-01-15T05:28:25.765Z,-5.98
2024-01-15T05:29:26.133Z,-5.97
2024-01-15T05:30:27.487Z,-5.94
2024-01-15T05:31:27.720Z,-5.91
2024-01-15T05:32:28.131Z,-5.9
2024-01-15T05:33:28.805Z,-5.86
2024-01-15T05:34:28.945Z,-5.86
2024-01-15T05:35:29.414Z,-5.92
2024-01-15T05:36:29.740Z,-5.95
2024-01-15T05:37:30.179Z,-5.95
2024-01-15T05:38:30.857Z,-5.94
2024-01-15T05:39:31.023Z,-5.94
2024-01-15T05:40:31.386Z,-5.97
2024-01-15T05:41:31.541Z,-6.01
2024-01-15T05:42:32.232Z,-6.03
2024-01-15T05:43:32.831Z,-6.07
2024-01-15T05:44:32.788Z,-6.09
2024-01-15T05:45:35.295Z,-6.13
2024-01-15T05:46:33.670Z,-6.13
2024-01-15T05:47:34.131Z,-6.09
2024-01-15T05:48:34.689Z,-6.04
2024-01-15T05:49:34.937Z,-6.02
2024-01-15T05:50:35.346Z,-6.04
2024-01-15T05:51:35.804Z,-6.05
2024-01-15T05:52:36.285Z,-6.07
2024-01-15T05:53:36.480Z,-6.05
2024-01-15T05:54:36.968Z,-6
2024-01-15T05:55:38.065Z,-5.96
2024-01-15T05:56:37.622Z,-5.93
2024-01-15T05:57:38.167Z,-5.91
2024-01-15T05:58:38.685Z,-5.9
2024-01-15T05:59:38.840Z,-5.88
2024-01-15T06:00:39.510Z,-5.88
2024-01-15T06:01:39.634Z,-5.87
2024-01-15T06:02:40.108Z,-5.86
2024-01-15T06:03:40.522Z,-5.86
2024-01-15T06:04:40.861Z,-5.86
2024-01-15T06:05:41.449Z,-5.88
2024-01-15T06:06:41.636Z,-5.88
2024-01-15T06:07:43.126Z,-5.89
2024-01-15T06:08:42.311Z,-5.9
2024-01-15T06:09:43.001Z,-5.88
2024-01-15T06:10:43.468Z,-5.85
2024-01-15T06:11:44.280Z,-5.79
2024-01-15T06:12:45.590Z,-5.78
2024-01-15T06:13:45.112Z,-5.81
2024-01-15T06:14:45.557Z,-5.84
2024-01-15T06:15:46.092Z,-5.83
2024-01-15T06:16:46.368Z,-5.8
2024-01-15T06:17:46.760Z,-5.79
2024-01-15T06:18:47.526Z,-5.75
2024-01-15T06:19:47.682Z,-5.75
2024-01-15T06:20:47.979Z,-5.73
2024-01-15T06:21:48.359Z,-5.74
2024-01-15T06:22:48.657Z,-5.77
2024-01-15T06:23:49.091Z,-5.83
2024-01-15T06:24:49.623Z,-5.8
2024-01-15T06:25:50.213Z,-5.85
2024-01-15T06:26:50.528Z,-5.86
2024-01-15T06:27:51.148Z,-5.85
2024-01-15T06:28:51.257Z,-5.8
2024-01-15T06:29:51.643Z,-5.78
2024-01-15T06:30:52.023Z,-5.77
2024-01-15T06:31:52.409Z,-5.82
2024-01-15T06:32:52.936Z,-5.85
2024-01-15T06:33:53.225Z,-5.82
2024-01-15T06:34:54.155Z,-5.76
2024-01-15T06:35:54.694Z,-5.74
2024-01-15T06:36:55.284Z,-5.74
2024-01-15T06:37:55.350Z,-5.72
2024-01-15T06:38:56.239Z,-5.7
2024-01-15T06:39:56.319Z,-5.71
2024-01-15T06:40:56.663Z,-5.71
2024-01-15T06:41:56.969Z,-5.75
2024-01-15T06:42:57.375Z,-5.71
2024-01-15T06:43:57.766Z,-5.69
2024-01-15T06:44:58.132Z,-5.69
2024-01-15T06:45:58.776Z,-5.7
2024-01-15T06:46:58.871Z,-5.68
2024-01-15T06:47:59.451Z,-5.66
2024-01-15T06:49:00.051Z,-5.66
2024-01-15T06:50:00.632Z,-5.67
2024-01-15T06:51:00.591Z,-5.7
2024-01-15T06:52:01.093Z,-5.71
2024-01-15T06:53:01.372Z,-5.71
2024-01-15T06:54:01.868Z,-5.72
2024-01-15T06:55:02.164Z,-5.75
2024-01-15T06:56:02.702Z,-5.75
2024-01-15T06:57:03.010Z,-5.72
2024-01-15T06:58:03.656Z,-5.72
2024-01-15T06:59:03.758Z,-5.74
2024-01-15T07:00:04.822Z,-5.73
2024-01-15T07:01:05.157Z,-5.76
2024-01-15T07:02:05.621Z,-5.75
2024-01-15T07:03:05.790Z,-5.71
2024-01-15T07:04:05.940Z,-5.71
2024-01-15T07:05:06.819Z,-5.69
2024-01-15T07:06:06.880Z,-5.68
2024-01-15T07:07:06.911Z,-5.72
2024-01-15T07:08:07.517Z,-5.76
2024-01-15T07:09:07.743Z,-5.77
2024-01-15T07:10:09.436Z,-5.77
2024-01-15T07:11:08.846Z,-5.8
2024-01-15T07:12:09.223Z,-5.77
2024-01-15T07:13:10.104Z,-5.78
2024-01-15T07:14:09.910Z,-5.79
2024-01-15T07:15:10.564Z,-5.79
2024-01-15T07:16:10.752Z,-5.71
2024-01-15T07:17:11.141Z,-5.71
2024-01-15T07:18:11.534Z,-5.69
2024-01-15T07:19:12.585Z,-5.67
2024-01-15T07:20:12.874Z,-5.61
2024-01-15T07:21:12.877Z,-5.64
2024-01-15T07:22:13.312Z,-5.56
2024-01-15T07:23:13.527Z,-5.5
2024-01-15T07:24:13.762Z,-5.48
2024-01-15T07:25:14.296Z,-5.55
2024-01-15T07:26:15.103Z,-5.61
2024-01-15T07:27:15.015Z,-5.59
2024-01-15T07:28:15.436Z,-5.58
2024-01-15T07:29:16.144Z,-5.59
2024-01-15T07:30:16.587Z,-5.57
2024-01-15T07:31:19.626Z,-5.55
2024-01-15T07:32:17.396Z,-5.58
2024-01-15T07:33:17.876Z,-5.54
2024-01-15T07:34:18.780Z,-5.49
2024-01-15T07:35:18.961Z,-5.46
2024-01-15T07:36:18.916Z,-5.48
2024-01-15T07:37:19.259Z,-5.51
2024-01-15T07:38:19.813Z,-5.49
2024-01-15T07:39:20.415Z,-5.42
2024-01-15T07:40:20.406Z,-5.36
2024-01-15T07:41:20.859Z,-5.42
2024-01-15T07:42:21.281Z,-5.37
2024-01-15T07:43:21.660Z,-5.32
2024-01-15T07:44:22.908Z,-5.33
2024-01-15T07:45:23.079Z,-5.31
2024-01-15T07:46:23.462Z,-5.3
2024-01-15T07:47:24.072Z,-5.34
2024-01-15T07:48:24.445Z,-5.27
2024-01-15T07:49:24.827Z,-5.17
2024-01-15T07:50:25.083Z,-5.15
2024-01-15T07:51:26.136Z,-5.14
2024-01-15T07:52:26.032Z,-5.13
2024-01-15T07:53:26.164Z,-5.18
2024-01-15T07:54:26.815Z,-5.2
2024-01-15T07:55:27.918Z,-5.14
2024-01-15T07:56:28.298Z,-5.07
2024-01-15T07:57:28.994Z,-5.06
2024-01-15T07:58:28.978Z,-5.07
2024-01-15T07:59:29.644Z,-5.01
2024-01-15T08:00:30.124Z,-4.92
2024-01-15T08:01:30.313Z,-4.86
2024-01-15T08:02:32.658Z,-4.94
2024-01-15T08:03:31.775Z,-4.98
2024-01-15T08:04:32.271Z,-4.9
2024-01-15T08:05:32.477Z,-4.82
2024-01-15T08:06:32.965Z,-4.86
2024-01-15T08:07:33.307Z,-4.76
2024-01-15T08:08:33.818Z,-4.7
2024-01-15T08:09:34.292Z,-4.68
2024-01-15T08:10:34.515Z,-4.56
2024-01-15T08:11:35.556Z,-4.52
2024-01-15T08:12:35.517Z,-4.57
2024-01-15T08:13:35.843Z,-4.71
2024-01-15T08:14:36.299Z,-4.7
2024-01-15T08:15:36.730Z,-4.68
2024-01-15T08:16:37.587Z,-4.68
2024-01-15T08:17:37.394Z,-4.58
2024-01-15T08:18:37.718Z,-4.61
2024-01-15T08:19:38.336Z,-4.67
2024-01-15T08:20:38.620Z,-4.58
2024-01-15T08:21:39.089Z,-4.46
2024-01-15T08:22:40.315Z,-4.35
2024-01-15T08:23:40.039Z,-4.36
2024-01-15T08:24:40.504Z,-4.32
2024-01-15T08:25:40.898Z,-4.22
2024-01-15T08:26:40.982Z,-4.13
2024-01-15T08:27:44.516Z,-4.14
2024-01-15T08:28:42.572Z,-4.06
2024-01-15T08:29:42.655Z,-3.98
2024-01-15T08:30:43.083Z,-3.89
2024-01-15T08:31:43.548Z,-3.82
2024-01-15T08:32:44.229Z,-3.8
2024-01-15T08:33:44.510Z,-3.79
2024-01-15T08:34:44.708Z,-3.84
2024-01-15T08:35:45.033Z,-3.81
2024-01-15T08:36:45.303Z,-3.75
2024-01-15T08:37:46.491Z,-3.65
2024-01-15T08:38:46.806Z,-3.7
2024-01-15T08:39:50.255Z,-3.69
2024-01-15T08:40:50.521Z,-3.62
2024-01-15T08:41:49.413Z,-3.58
2024-01-15T08:42:49.888Z,-3.53
2024-01-15T08:43:50.096Z,-3.45
2024-01-15T08:44:50.757Z,-3.43
2024-01-15T08:45:51.581Z,-3.41
2024-01-15T08:46:51.934Z,-3.54
2024-01-15T08:47:52.514Z,-3.5
2024-01-15T08:48:52.858Z,-3.47
2024-01-15T08:49:53.143Z,-3.41
2024-01-15T08:50:54.146Z,-3.35
2024-01-15T08:51:54.181Z,-3.36
2024-01-15T08:52:54.537Z,-3.21
2024-01-15T08:53:54.693Z,-3.15
2024-01-15T08:54:56.504Z,-3.09
2024-01-15T08:55:55.462Z,-2.99
2024-01-15T08:56:56.076Z,-3.09
2024-01-15T08:57:56.403Z,-3.11
2024-01-15T08:58:56.567Z,-3.12
2024-01-15T08:59:57.003Z,-3.07
2024-01-15T09:00:57.761Z,-3.06
2024-01-15T09:01:57.825Z,-3.04
2024-01-15T09:02:58.117Z,-2.98
2024-01-15T09:03:58.415Z,-3.06
2024-01-15T09:04:58.972Z,-3.03
2024-01-15T09:05:59.142Z,-3.03
2024-01-15T09:06:59.704Z,-2.96
2024-01-15T09:07:59.900Z,-2.88
2024-01-15T09:09:00.206Z,-2.98
2024-01-15T09:10:00.743Z,-2.96
2024-01-15T09:11:00.849Z,-2.93
2024-01-15T09:12:01.357Z,-2.95
2024-01-15T09:13:01.853Z,-2.88
2024-01-15T09:14:02.009Z,-2.88
2024-01-15T09:15:02.342Z,-2.89
2024-01-15T09:16:02.491Z,-2.84
2024-01-15T09:17:02.846Z,-2.84
2024-01-15T09:18:06.249Z,-2.84
2024-01-15T09:19:05.682Z,-2.76
2024-01-15T09:20:07.088Z,-2.73
2024-01-15T09:21:06.316Z,-2.72
2024-01-15T09:22:06.718Z,-2.66
2024-01-15T09:23:06.853Z,-2.61
2024-01-15T09:24:07.793Z,-2.63
2024-01-15T09:25:08.180Z,-2.55
2024-01-15T09:26:10.021Z,-2.56
2024-01-15T09:27:08.222Z,-2.57
2024-01-15T09:28:09.404Z,-2.46
2024-01-15T09:29:08.689Z,-2.42
2024-01-15T09:30:09.944Z,-2.43
2024-01-15T09:31:09.545Z,-2.43
2024-01-15T09:32:09.791Z,-2.42
2024-01-15T09:33:10.235Z,-2.36
2024-01-15T09:34:10.499Z,-2.34
2024-01-15T09:35:10.993Z,-2.39
2024-01-15T09:36:11.200Z,-2.4
2024-01-15T09:37:14.852Z,-2.39
2024-01-15T09:38:12.411Z,-2.34
2024-01-15T09:39:12.773Z,-2.26
2024-01-15T09:40:17.189Z,-2.26
2024-01-15T09:41:15.580Z,-2.28
2024-01-15T09:42:15.516Z,-2.26
2024-01-15T09:43:16.234Z,-2.16
2024-01-15T09:44:16.679Z,-2.17
2024-01-15T09:45:16.930Z,-2.1
2024-01-15T09:46:16.857Z,-2.07
2024-01-15T09:47:18.384Z,-2.11
2024-01-15T09:48:17.566Z,-2.09
2024-01-15T09:49:18.403Z,-2.13
2024-01-15T09:50:18.453Z,-2.17
2024-01-15T09:51:19.275Z,-2.21
2024-01-15T09:52:20.418Z,-2.15
2024-01-15T09:53:19.912Z,-2.06
2024-01-15T09:54:19.287Z,-2.07
2024-01-15T09:55:20.092Z,-2.03
2024-01-15T09:56:20.170Z,-2.11
2024-01-15T09:57:20.594Z,-2.02
2024-01-15T09:58:20.935Z,-1.99
2024-01-15T09:59:23.386Z,-2
2024-01-15T10:00:23.550Z,-2.03
2024-01-15T10:01:22.236Z,-2.02
2024-01-15T10:02:22.386Z,-2.01
2024-01-15T10:03:22.269Z,-1.89
2024-01-15T10:04:23.099Z,-1.93
2024-01-15T10:05:23.104Z,-1.91
2024-01-15T10:06:23.681Z,-1.95
2024-01-15T10:07:26.682Z,-1.98
2024-01-15T10:08:24.657Z,-1.97
2024-01-15T10:09:24.441Z,-1.99
2024-01-15T10:10:24.980Z,-1.96
2024-01-15T10:11:25.352Z,-2
2024-01-15T10:12:25.963Z,-2.02
2024-01-15T10:13:25.915Z,-1.94
2024-01-15T10:14:26.032Z,-1.99
2024-01-15T10:15:29.069Z,-1.94
2024-01-15T10:16:29.529Z,-1.87
2024-01-15T10:17:27.115Z,-1.88
2024-01-15T10:18:27.709Z,-1.98
2024-01-15T10:19:27.826Z,-1.93
2024-01-15T10:20:28.173Z,-1.96
2024-01-15T10:21:28.597Z,-1.79
2024-01-15T10:22:28.894Z,-1.74
2024-01-15T10:23:29.172Z,-1.79
2024-01-15T10:24:29.425Z,-1.71
2024-01-15T10:25:30.728Z,-1.75
2024-01-15T10:26:31.079Z,-1.72
2024-01-15T10:27:30.506Z,-1.76
2024-01-15T10:28:32.160Z,-1.84
2024-01-15T10:29:31.157Z,-1.82
2024-01-15T10:30:33.051Z,-1.88
2024-01-15T10:31:32.325Z,-1.86
2024-01-15T10:32:32.254Z,-1.86
2024-01-15T10:33:32.632Z,-1.85
2024-01-15T10:34:32.768Z,-1.87
2024-01-15T10:35:36.379Z,-1.91
2024-01-15T10:36:33.814Z,-1.97
2024-01-15T10:37:36.818Z,-1.91
2024-01-15T10:38:34.515Z,-1.83
2024-01-15T10:39:34.972Z,-1.78
2024-01-15T10:40:35.336Z,-1.78
2024-01-15T10:41:35.974Z,-1.68
2024-01-15T10:42:35.906Z,-1.73
2024-01-15T10:43:36.310Z,-1.76
2024-01-15T10:44:37.196Z,-1.87
2024-01-15T10:45:36.805Z,-1.98
2024-01-15T10:46:37.848Z,-1.98
2024-01-15T10:47:37.984Z,-1.97
2024-01-15T10:48:37.908Z,-1.96
2024-01-15T10:49:38.237Z,-1.92
2024-01-15T10:50:38.509Z,-1.92
2024-01-15T10:51:39.867Z,-1.91
2024-01-15T10:52:40.598Z,-1.9
2024-01-15T10:53:40.405Z,-1.86
2024-01-15T10:54:40.674Z,-1.86
2024-01-15T10:55:40.385Z,-1.87
2024-01-15T10:56:41.477Z,-1.86
2024-01-15T10:57:40.750Z,-1.91
2024-01-15T10:58:42.801Z,-1.89
2024-01-15T10:59:41.479Z,-1.83
2024-01-15T11:00:41.976Z,-1.88
2024-01-15T11:01:44.086Z,-1.83
2024-01-15T11:02:42.986Z,-1.73
2024-01-15T11:03:44.417Z,-1.68
2024-01-15T11:04:43.178Z,-1.61
2024-01-15T11:05:44.766Z,-1.69
2024-01-15T11:06:46.748Z,-1.58
2024-01-15T11:07:44.591Z,-1.69
2024-01-15T11:08:45.267Z,-1.82
2024-01-15T11:09:46.440Z,-1.87
2024-01-15T11:10:48.395Z,-1.77
2024-01-15T11:11:47.228Z,-1.63
2024-01-15T11:12:49.088Z,-1.61
2024-01-15T11:13:49.361Z,-1.62
2024-01-15T11:14:50.544Z,-1.6
2024-01-15T11:16:57.787Z,-1.81
2024-01-15T11:18:02.534Z,-1.84
2024-01-15T11:19:04.259Z,-1.73
2024-01-15T11:20:02.102Z,-1.57
2024-01-15T11:22:03.950Z,-1.6
2024-01-15T11:23:04.584Z,-1.62
2024-01-15T11:24:04.921Z,-1.65
2024-01-15T11:27:09.178Z,-1.5
2024-01-15T11:28:07.991Z,-1.48
2024-01-15T11:30:14.279Z,-1.6
2024-01-15T11:31:15.139Z,-1.63
2024-01-15T11:32:13.648Z,-1.64
2024-01-15T11:34:19.478Z,-1.62
2024-01-15T11:35:19.820Z,-1.6
2024-01-15T11:36:19.934Z,-1.55
2024-01-15T11:37:21.191Z,-1.57
2024-01-15T11:38:29.765Z,-1.59
2024-01-15T11:40:39.684Z,-1.69
2024-01-15T11:41:29.725Z,-1.72
2024-01-15T11:42:27.393Z,-1.66
2024-01-15T11:43:27.875Z,-1.61
2024-01-15T11:44:28.432Z,-1.66
2024-01-15T11:45:29.191Z,-1.61
2024-01-15T11:46:37.099Z,-1.71
2024-01-15T11:48:44.600Z,-1.64
2024-01-15T11:50:45.717Z,-1.74
2024-01-15T11:51:43.479Z,-1.82
2024-01-15T11:52:55.561Z,-1.78
2024-01-15T11:53:52.320Z,-1.83
2024-01-15T11:55:02.845Z,-1.77
2024-01-15T11:55:52.763Z,-1.67
2024-01-15T11:56:51.064Z,-1.65
2024-01-15T11:57:54.803Z,-1.69
2024-01-15T11:58:52.735Z,-1.67
2024-01-15T11:59:52.779Z,-1.69
2024-01-15T12:00:54.736Z,-1.68
2024-01-15T12:01:54.361Z,-1.65
2024-01-15T12:02:53.796Z,-1.72
2024-01-15T12:03:54.163Z,-1.64
2024-01-15T12:04:54.406Z,-1.61
2024-01-15T12:05:54.858Z,-1.59
2024-01-15T12:06:55.262Z,-1.56
2024-01-15T12:07:55.328Z,-1.56
2024-01-15T12:09:07.969Z,-1.57
2024-01-15T12:10:00.577Z,-1.57
2024-01-15T12:11:00.908Z,-1.49
2024-01-15T12:12:13.540Z,-1.51
2024-01-15T12:13:14.231Z,-1.5
2024-01-15T12:14:06.774Z,-1.5
2024-01-15T12:15:07.739Z,-1.51
2024-01-15T12:16:07.803Z,-1.58
2024-01-15T12:17:08.010Z,-1.52
2024-01-15T12:18:09.594Z,-1.47
2024-01-15T12:19:08.826Z,-1.47
2024-01-15T12:20:10.126Z,-1.52
2024-01-15T12:21:10.952Z,-1.53
2024-01-15T12:22:09.583Z,-1.55
2024-01-15T12:23:10.575Z,-1.53
2024-01-15T12:24:10.200Z,-1.53
2024-01-15T12:25:11.005Z,-1.47
2024-01-15T12:26:11.850Z,-1.53
2024-01-15T12:27:11.391Z,-1.48
2024-01-15T12:28:11.721Z,-1.48
2024-01-15T12:29:12.709Z,-1.5
2024-01-15T12:30:13.492Z,-1.49
2024-01-15T12:31:12.745Z,-1.49
2024-01-15T12:32:14.165Z,-1.57
2024-01-15T12:33:13.866Z,-1.55
2024-01-15T12:34:13.613Z,-1.55
2024-01-15T12:35:14.369Z,-1.5
2024-01-15T12:36:14.931Z,-1.49
2024-01-15T12:37:14.492Z,-1.51
2024-01-15T12:38:14.920Z,-1.55
2024-01-15T12:39:15.356Z,-1.55
2024-01-15T12:40:20.854Z,-1.53
2024-01-15T12:41:18.735Z,-1.54
2024-01-15T12:42:18.937Z,-1.57
2024-01-15T12:43:19.477Z,-1.53
2024-01-15T12:44:19.865Z,-1.47
2024-01-15T12:45:20.120Z,-1.52
2024-01-15T12:46:19.990Z,-1.43
2024-01-15T12:47:21.228Z,-1.42
2024-01-15T12:48:20.736Z,-1.39
2024-01-15T12:49:21.298Z,-1.43
2024-01-15T12:50:24.821Z,-1.44
2024-01-15T12:51:26.430Z,-1.43
2024-01-15T12:52:23.993Z,-1.46
2024-01-15T12:53:24.509Z,-1.46
2024-01-15T12:54:25.375Z,-1.44
2024-01-15T12:55:25.003Z,-1.44
2024-01-15T12:56:25.515Z,-1.46
2024-01-15T12:57:25.741Z,-1.44
2024-01-15T12:58:26.053Z,-1.42
2024-01-15T12:59:26.322Z,-1.4
2024-01-15T13:00:26.836Z,-1.45
2024-01-15T13:01:27.043Z,-1.45
2024-01-15T13:02:27.628Z,-1.44
2024-01-15T13:03:27.736Z,-1.4
2024-01-15T13:04:28.409Z,-1.38
2024-01-15T13:05:29.724Z,-1.39
2024-01-15T13:06:28.768Z,-1.45
2024-01-15T13:07:28.987Z,-1.43
2024-01-15T13:08:29.297Z,-1.45
2024-01-15T13:09:29.831Z,-1.39
2024-01-15T13:10:29.977Z,-1.42